Time;durP1;ratioP1;P1;durP2;ratioP2;P2;SDS_P1;SDS_P2;PMS_P1;PMS_P2;Temp;Humidity;BMP_temperature;BMP_pressure;BME280_temperature;BME280_humidity;BME280_pressure;Samples;Min_cycle;Max_cycle;Signal;HPM_P1;HPM_P2
2021/09/23 00:00:11;0.00;0.00;0.62;0.00;0.00;0.62;3.90;3.33;;;27.90;31.80;;;;;;2249864;61;20415;-60
2021/09/23 00:05:41;0.00;0.00;0.62;0.00;0.00;0.62;4.40;3.80;;;27.80;31.70;;;;;;2249730;61;20385;-61
2021/09/23 00:08:26;0.00;0.00;0.62;0.00;0.00;0.62;4.40;3.33;;;27.80;31.60;;;;;;2249729;61;20405;-61
2021/09/23 00:11:12;0.00;0.00;0.62;0.00;0.00;0.62;5.20;4.07;;;27.70;31.50;;;;;;2249645;61;20485;-61
2021/09/23 00:13:58;0.00;0.00;0.62;0.00;0.00;0.62;3.50;3.20;;;27.70;31.50;;;;;;2249986;61;20601;-61
2021/09/23 00:16:42;0.00;0.00;0.62;0.00;0.00;0.62;3.80;3.40;;;27.70;31.50;;;;;;2249374;61;20772;-61
2021/09/23 00:19:27;0.00;0.00;0.62;0.00;0.00;0.62;8.07;3.50;;;27.70;31.50;;;;;;2249662;61;20488;-61
2021/09/23 00:22:12;0.00;0.00;0.62;0.00;0.00;0.62;4.63;3.60;;;27.60;31.40;;;;;;2249791;61;20385;-61
2021/09/23 00:24:56;0.00;0.00;0.62;0.00;0.00;0.62;4.30;3.50;;;27.60;31.40;;;;;;2249560;61;20356;-61
2021/09/23 00:27:42;0.00;0.00;0.62;0.00;0.00;0.62;3.87;2.80;;;27.60;31.40;;;;;;2249706;61;20400;-61
2021/09/23 00:30:27;0.00;0.00;0.62;0.00;0.00;0.62;4.43;3.40;;;27.60;31.40;;;;;;2249105;61;20373;-61
2021/09/23 00:33:12;0.00;0.00;0.62;0.00;0.00;0.62;3.73;3.23;;;27.50;31.40;;;;;;2248936;61;20433;-61
2021/09/23 00:35:56;0.00;0.00;0.62;0.00;0.00;0.62;4.93;3.47;;;27.50;31.40;;;;;;2250089;61;20377;-62
2021/09/23 00:38:41;0.00;0.00;0.62;0.00;0.00;0.62;4.07;3.67;;;27.50;31.40;;;;;;2249260;61;20404;-61
2021/09/23 00:41:26;0.00;0.00;0.62;0.00;0.00;0.62;3.90;3.50;;;27.50;31.40;;;;;;2249594;61;20435;-61
2021/09/23 00:44:17;0.00;0.00;0.62;0.00;0.00;0.62;4.10;3.47;;;27.50;31.40;;;;;;2249634;61;20376;-61
2021/09/23 00:47:02;0.00;0.00;0.62;0.00;0.00;0.62;4.87;4.07;;;27.40;31.30;;;;;;2249610;61;20416;-61
2021/09/23 00:49:48;0.00;0.00;0.62;0.00;0.00;0.62;3.90;3.33;;;27.40;31.30;;;;;;2249640;61;20361;-61
2021/09/23 00:52:34;0.00;0.00;0.62;0.00;0.00;0.62;3.53;3.23;;;27.40;31.30;;;;;;2249236;61;20381;-61
2021/09/23 00:55:19;0.00;0.00;0.62;0.00;0.00;0.62;4.13;3.30;;;27.40;31.30;;;;;;2248979;61;20420;-61
2021/09/23 00:58:05;0.00;0.00;0.62;0.00;0.00;0.62;4.27;3.67;;;27.40;31.30;;;;;;2249579;61;20369;-61
2021/09/23 01:00:56;0.00;0.00;0.62;0.00;0.00;0.62;3.87;3.43;;;27.30;31.20;;;;;;2248921;61;20425;-61
2021/09/23 01:03:42;0.00;0.00;0.62;0.00;0.00;0.62;3.70;3.40;;;27.30;31.20;;;;;;2249212;61;20485;-61
2021/09/23 01:06:26;0.00;0.00;0.62;0.00;0.00;0.62;4.30;3.67;;;27.30;31.20;;;;;;2249153;61;20381;-61
2021/09/23 01:09:11;0.00;0.00;0.62;0.00;0.00;0.62;4.47;3.60;;;27.20;31.10;;;;;;2249200;61;20373;-61
2021/09/23 01:11:56;0.00;0.00;0.62;0.00;0.00;0.62;3.50;3.17;;;27.20;31.10;;;;;;2249511;61;20397;-61
2021/09/23 01:14:41;0.00;0.00;0.62;0.00;0.00;0.62;4.20;3.80;;;27.20;31.10;;;;;;2249108;61;20384;-62
2021/09/23 01:17:27;0.00;0.00;0.62;0.00;0.00;0.62;4.60;3.47;;;27.20;31.10;;;;;;2248955;61;20412;-61
2021/09/23 01:20:19;0.00;0.00;0.62;0.00;0.00;0.62;4.37;3.97;;;27.20;31.10;;;;;;2249415;61;20372;-60
2021/09/23 01:23:05;0.00;0.00;0.62;0.00;0.00;0.62;5.20;4.03;;;27.20;31.10;;;;;;2248815;61;20373;-62
2021/09/23 01:25:56;0.00;0.00;0.62;0.00;0.00;0.62;4.77;4.27;;;27.10;31.00;;;;;;2249093;61;20404;-61
2021/09/23 01:28:42;0.00;0.00;0.62;0.00;0.00;0.62;4.03;3.63;;;27.10;31.00;;;;;;2249097;61;20368;-61
2021/09/23 01:31:27;0.00;0.00;0.62;0.00;0.00;0.62;4.53;3.90;;;27.10;31.10;;;;;;2249214;61;20433;-62
2021/09/23 01:34:12;0.00;0.00;0.62;0.00;0.00;0.62;4.17;3.80;;;27.10;31.00;;;;;;2249012;61;20368;-61
2021/09/23 01:36:57;0.00;0.00;0.62;0.00;0.00;0.62;3.87;3.50;;;27.00;31.00;;;;;;2249582;61;20379;-62
2021/09/23 01:39:42;0.00;0.00;0.62;0.00;0.00;0.62;4.37;3.97;;;27.00;31.00;;;;;;2248869;61;20365;-61
2021/09/23 01:42:36;0.00;0.00;0.62;0.00;0.00;0.62;4.80;3.53;;;27.00;31.00;;;;;;2249446;61;20361;-62
2021/09/23 01:45:21;0.00;0.00;0.62;0.00;0.00;0.62;4.83;4.00;;;27.00;31.00;;;;;;2248847;61;20420;-61
2021/09/23 01:48:08;0.00;0.00;0.62;0.00;0.00;0.62;4.33;3.93;;;27.00;31.00;;;;;;2248883;61;20356;-62
2021/09/23 01:50:55;0.00;0.00;0.62;0.00;0.00;0.62;5.00;3.97;;;26.90;30.90;;;;;;2249212;61;20381;-62
2021/09/23 01:53:39;0.00;0.00;0.62;0.00;0.00;0.62;4.63;4.23;;;26.90;30.90;;;;;;2248966;61;20369;-62
2021/09/23 01:56:25;0.00;0.00;0.62;0.00;0.00;0.62;6.40;4.90;;;26.90;30.90;;;;;;2249397;61;20461;-61
2021/09/23 01:59:10;0.00;0.00;0.62;0.00;0.00;0.62;4.67;4.27;;;26.90;30.90;;;;;;2249050;61;20579;-61
2021/09/23 02:01:54;0.00;0.00;0.62;0.00;0.00;0.62;3.93;3.53;;;26.80;30.90;;;;;;2248776;61;20424;-62
2021/09/23 02:04:39;0.00;0.00;0.62;0.00;0.00;0.62;4.23;3.83;;;26.80;30.90;;;;;;2249344;61;20405;-61
2021/09/23 02:07:23;0.00;0.00;0.62;0.00;0.00;0.62;4.80;4.40;;;26.80;30.90;;;;;;2248690;61;20737;-61
2021/09/23 02:10:14;0.00;0.00;0.62;0.00;0.00;0.62;5.20;4.40;;;26.80;30.90;;;;;;2248884;61;20363;-62
2021/09/23 02:13:01;0.00;0.00;0.62;0.00;0.00;0.62;4.53;4.10;;;26.70;30.90;;;;;;2248923;61;20360;-61
2021/09/23 02:15:47;0.00;0.00;0.62;0.00;0.00;0.62;4.20;3.80;;;26.70;30.90;;;;;;2248987;61;20400;-62
2021/09/23 02:18:32;0.00;0.00;0.62;0.00;0.00;0.62;4.50;3.97;;;26.70;30.90;;;;;;2248928;61;20409;-62
2021/09/23 02:21:17;0.00;0.00;0.62;0.00;0.00;0.62;4.33;3.93;;;26.70;30.90;;;;;;2249048;61;20443;-61
2021/09/23 02:24:05;0.00;0.00;0.62;0.00;0.00;0.62;4.70;4.17;;;26.60;30.90;;;;;;2248574;61;20867;-61
2021/09/23 02:26:49;0.00;0.00;0.62;0.00;0.00;0.62;4.87;4.30;;;26.60;31.00;;;;;;2249315;61;20384;-61
2021/09/23 02:29:35;0.00;0.00;0.62;0.00;0.00;0.62;4.93;4.50;;;26.60;31.00;;;;;;2248713;61;20392;-61
2021/09/23 02:32:20;0.00;0.00;0.62;0.00;0.00;0.62;5.97;4.77;;;26.60;31.10;;;;;;2248829;61;20361;-61
2021/09/23 02:35:06;0.00;0.00;0.62;0.00;0.00;0.62;5.43;4.93;;;26.60;31.10;;;;;;2249229;61;20364;-62
2021/09/23 02:37:51;0.00;0.00;0.62;0.00;0.00;0.62;6.20;5.47;;;26.60;31.10;;;;;;2248998;61;20380;-62
2021/09/23 02:40:36;0.00;0.00;0.62;0.00;0.00;0.62;5.53;5.03;;;26.50;31.00;;;;;;2248815;61;20456;-61
2021/09/23 02:43:20;0.00;0.00;0.62;0.00;0.00;0.62;5.23;4.53;;;26.50;31.00;;;;;;2248866;61;20368;-62
2021/09/23 02:46:06;0.00;0.00;0.62;0.00;0.00;0.62;4.77;4.33;;;26.50;31.00;;;;;;2248822;61;20428;-62
2021/09/23 02:48:51;0.00;0.00;0.62;0.00;0.00;0.62;5.10;4.60;;;26.50;31.00;;;;;;2249186;61;20501;-60
2021/09/23 02:51:36;0.00;0.00;0.62;0.00;0.00;0.62;5.30;4.63;;;26.40;31.00;;;;;;2249055;61;20726;-62
2021/09/23 02:54:20;0.00;0.00;0.62;0.00;0.00;0.62;5.03;4.50;;;26.40;31.00;;;;;;2248868;61;20360;-62
2021/09/23 02:57:05;0.00;0.00;0.62;0.00;0.00;0.62;5.10;4.60;;;26.40;31.00;;;;;;2249991;61;20557;-62
2021/09/23 02:59:49;0.00;0.00;0.62;0.00;0.00;0.62;5.73;5.13;;;26.40;31.00;;;;;;2249576;61;20718;-62
2021/09/23 03:02:35;0.00;0.00;0.62;0.00;0.00;0.62;5.50;4.73;;;26.40;31.00;;;;;;2249467;61;20392;-62
2021/09/23 03:05:20;0.00;0.00;0.62;0.00;0.00;0.62;4.63;4.23;;;26.30;30.90;;;;;;2249625;61;20765;-62
2021/09/23 03:08:05;0.00;0.00;0.62;0.00;0.00;0.62;9.60;4.50;;;26.30;30.90;;;;;;2249463;61;20361;-60
2021/09/23 03:10:49;0.00;0.00;0.62;0.00;0.00;0.62;6.13;4.67;;;26.30;30.90;;;;;;2249874;61;20392;-62
2021/09/23 03:13:34;0.00;0.00;0.62;0.00;0.00;0.62;5.67;5.10;;;26.30;30.90;;;;;;2249386;61;20368;-62
2021/09/23 03:16:18;0.00;0.00;0.62;0.00;0.00;0.62;6.80;4.50;;;26.30;30.90;;;;;;2249367;61;20800;-62
2021/09/23 03:19:04;0.00;0.00;0.62;0.00;0.00;0.62;6.00;4.47;;;26.30;30.90;;;;;;2249909;61;20420;-62
2021/09/23 03:21:49;0.00;0.00;0.62;0.00;0.00;0.62;5.33;4.40;;;26.30;30.90;;;;;;2249152;61;20614;-62
2021/09/23 03:24:33;0.00;0.00;0.62;0.00;0.00;0.62;6.10;4.80;;;26.20;30.80;;;;;;2249803;61;20369;-62
2021/09/23 03:27:18;0.00;0.00;0.62;0.00;0.00;0.62;5.37;4.10;;;26.20;30.90;;;;;;2249505;61;20473;-62
2021/09/23 03:30:04;0.00;0.00;0.62;0.00;0.00;0.62;6.90;4.60;;;26.20;30.80;;;;;;2249833;61;20582;-62
2021/09/23 03:32:49;0.00;0.00;0.62;0.00;0.00;0.62;6.10;4.37;;;26.20;30.80;;;;;;2249895;61;20360;-62
2021/09/23 03:35:39;0.00;0.00;0.62;0.00;0.00;0.62;8.47;4.83;;;26.20;30.80;;;;;;2249775;61;20393;-62
2021/09/23 03:38:23;0.00;0.00;0.62;0.00;0.00;0.62;5.17;4.60;;;26.20;30.80;;;;;;2249888;61;20485;-62
2021/09/23 03:41:08;0.00;0.00;0.62;0.00;0.00;0.62;5.00;4.50;;;26.20;30.80;;;;;;2250206;61;20393;-62
2021/09/23 03:43:53;0.00;0.00;0.62;0.00;0.00;0.62;5.60;4.67;;;26.20;30.80;;;;;;2249421;61;20361;-61
2021/09/23 03:46:38;0.00;0.00;0.62;0.00;0.00;0.62;5.80;4.70;;;26.20;30.80;;;;;;2249375;61;20388;-62
2021/09/23 03:49:24;0.00;0.00;0.62;0.00;0.00;0.62;5.90;4.77;;;26.10;30.80;;;;;;2249394;61;20361;-63
2021/09/23 03:52:10;0.00;0.00;0.62;0.00;0.00;0.62;5.50;4.90;;;26.10;30.80;;;;;;2249373;61;20377;-62
2021/09/23 03:54:55;0.00;0.00;0.62;0.00;0.00;0.62;5.83;5.10;;;26.10;30.80;;;;;;2249294;61;20497;-62
2021/09/23 03:57:40;0.00;0.00;0.62;0.00;0.00;0.62;6.70;4.73;;;26.10;30.80;;;;;;2249347;61;20383;-60
2021/09/23 04:00:25;0.00;0.00;0.62;0.00;0.00;0.62;5.33;4.53;;;26.10;30.80;;;;;;2249116;61;20392;-62
2021/09/23 04:03:10;0.00;0.00;0.62;0.00;0.00;0.62;9.10;4.93;;;26.10;30.80;;;;;;2249728;61;20639;-62
2021/09/23 04:05:55;0.00;0.00;0.62;0.00;0.00;0.62;6.60;5.00;;;26.10;30.80;;;;;;2248854;61;20384;-62
2021/09/23 04:08:41;0.00;0.00;0.62;0.00;0.00;0.62;5.40;4.90;;;26.00;30.70;;;;;;2249220;61;20369;-62
2021/09/23 04:11:34;0.00;0.00;0.62;0.00;0.00;0.62;5.43;4.77;;;26.00;30.70;;;;;;2249384;61;20701;-62
2021/09/23 04:14:19;0.00;0.00;0.62;0.00;0.00;0.62;6.60;5.27;;;26.00;30.70;;;;;;2249288;61;20369;-62
2021/09/23 04:17:04;0.00;0.00;0.62;0.00;0.00;0.62;6.27;5.33;;;26.00;30.70;;;;;;2249263;61;20443;-62
2021/09/23 04:19:50;0.00;0.00;0.62;0.00;0.00;0.62;5.87;4.60;;;26.00;30.70;;;;;;2249186;61;21011;-62
2021/09/23 04:22:35;0.00;0.00;0.62;0.00;0.00;0.62;5.67;5.07;;;26.00;30.70;;;;;;2249109;61;20635;-62
2021/09/23 04:25:21;0.00;0.00;0.62;0.00;0.00;0.62;5.37;4.67;;;26.00;30.70;;;;;;2249621;61;20388;-62
2021/09/23 04:28:07;0.00;0.00;0.62;0.00;0.00;0.62;9.37;5.40;;;26.00;30.70;;;;;;2248935;61;20364;-61
2021/09/23 04:30:52;0.00;0.00;0.62;0.00;0.00;0.62;6.07;5.47;;;25.90;30.60;;;;;;2249293;61;20365;-62
2021/09/23 04:33:37;0.00;0.00;0.62;0.00;0.00;0.62;9.80;7.00;;;25.90;30.60;;;;;;2249600;61;20408;-61
2021/09/23 04:36:21;0.00;0.00;0.62;0.00;0.00;0.62;6.47;5.27;;;25.90;30.60;;;;;;2249235;61;20381;-61
2021/09/23 04:39:07;0.00;0.00;0.62;0.00;0.00;0.62;6.00;4.97;;;25.90;30.60;;;;;;2249221;61;20367;-61
2021/09/23 04:41:54;0.00;0.00;0.62;0.00;0.00;0.62;6.90;5.70;;;25.80;30.50;;;;;;2249246;61;20846;-61
2021/09/23 04:44:39;0.00;0.00;0.62;0.00;0.00;0.62;8.17;5.20;;;25.90;30.60;;;;;;2248837;61;20372;-61
2021/09/23 04:47:24;0.00;0.00;0.62;0.00;0.00;0.62;6.93;5.17;;;25.80;30.50;;;;;;2249951;61;20404;-62
2021/09/23 04:50:09;0.00;0.00;0.62;0.00;0.00;0.62;6.33;5.63;;;25.80;30.50;;;;;;2248861;61;20772;-61
2021/09/23 04:52:54;0.00;0.00;0.62;0.00;0.00;0.62;7.60;6.13;;;25.80;30.50;;;;;;2249029;61;20745;-61
2021/09/23 04:55:40;0.00;0.00;0.62;0.00;0.00;0.62;6.70;6.00;;;25.80;30.50;;;;;;2249586;61;20388;-61
2021/09/23 04:58:26;0.00;0.00;0.62;0.00;0.00;0.62;10.33;6.77;;;25.80;30.50;;;;;;2249330;61;20583;-61
2021/09/23 05:01:11;0.00;0.00;0.62;0.00;0.00;0.62;7.90;7.10;;;25.70;30.50;;;;;;2249042;61;20660;-61
2021/09/23 05:03:56;0.00;0.00;0.62;0.00;0.00;0.62;7.73;5.73;;;25.70;30.50;;;;;;2249158;61;20364;-61
2021/09/23 05:06:41;0.00;0.00;0.62;0.00;0.00;0.62;10.63;7.13;;;25.70;30.50;;;;;;2249212;61;20646;-62
2021/09/23 05:09:26;0.00;0.00;0.62;0.00;0.00;0.62;13.17;7.17;;;25.70;30.50;;;;;;2249445;61;20396;-61
2021/09/23 05:12:11;0.00;0.00;0.62;0.00;0.00;0.62;9.70;7.90;;;25.70;30.50;;;;;;2248883;61;20361;-61
2021/09/23 05:14:57;0.00;0.00;0.62;0.00;0.00;0.62;10.13;8.10;;;25.70;30.50;;;;;;2248980;61;20365;-62
2021/09/23 05:17:41;0.00;0.00;0.62;0.00;0.00;0.62;11.50;9.30;;;25.60;30.40;;;;;;2249026;61;20496;-61
2021/09/23 05:20:26;0.00;0.00;0.62;0.00;0.00;0.62;8.80;7.80;;;25.60;30.40;;;;;;2249642;61;20589;-63
2021/09/23 05:23:10;0.00;0.00;0.62;0.00;0.00;0.62;9.43;8.40;;;25.60;30.40;;;;;;2249423;61;20744;-62
2021/09/23 05:25:55;0.00;0.00;0.62;0.00;0.00;0.62;7.97;6.77;;;25.50;30.30;;;;;;2249668;61;20656;-63
2021/09/23 05:28:39;0.00;0.00;0.62;0.00;0.00;0.62;9.57;8.13;;;25.50;30.30;;;;;;2249837;61;20830;-62
2021/09/23 05:31:25;0.00;0.00;0.62;0.00;0.00;0.62;10.33;7.80;;;25.50;30.30;;;;;;2249863;61;20359;-62
2021/09/23 05:34:10;0.00;0.00;0.62;0.00;0.00;0.62;7.73;6.70;;;25.50;30.40;;;;;;2249543;61;20360;-62
2021/09/23 05:36:55;0.00;0.00;0.62;0.00;0.00;0.62;9.13;7.00;;;25.50;30.50;;;;;;2249096;61;20420;-62
2021/09/23 05:39:40;0.00;0.00;0.62;0.00;0.00;0.62;9.10;6.60;;;25.40;30.50;;;;;;2249920;61;20413;-62
2021/09/23 05:42:24;0.00;0.00;0.62;0.00;0.00;0.62;10.73;8.60;;;25.40;30.50;;;;;;2249531;61;20413;-62
2021/09/23 05:45:11;0.00;0.00;0.62;0.00;0.00;0.62;7.47;6.77;;;25.40;30.60;;;;;;2249350;61;20427;-62
2021/09/23 05:47:57;0.00;0.00;0.62;0.00;0.00;0.62;8.20;7.20;;;25.40;30.60;;;;;;2249597;61;20576;-62
2021/09/23 05:50:44;0.00;0.00;0.62;0.00;0.00;0.62;10.53;8.77;;;25.40;30.70;;;;;;2249962;61;20357;-62
2021/09/23 05:53:28;0.00;0.00;0.62;0.00;0.00;0.62;7.77;7.00;;;25.40;30.60;;;;;;2249431;61;20391;-62
2021/09/23 05:56:13;0.00;0.00;0.62;0.00;0.00;0.62;8.13;6.93;;;25.30;30.60;;;;;;2249484;61;20380;-62
2021/09/23 05:58:57;0.00;0.00;0.62;0.00;0.00;0.62;7.70;6.77;;;25.30;30.70;;;;;;2249411;61;20401;-62
2021/09/23 06:01:42;0.00;0.00;0.62;0.00;0.00;0.62;8.67;7.20;;;25.30;30.70;;;;;;2250106;61;20388;-62
2021/09/23 06:04:29;0.00;0.00;0.62;0.00;0.00;0.62;9.07;6.97;;;25.30;30.70;;;;;;2249050;61;20460;-62
2021/09/23 06:07:13;0.00;0.00;0.62;0.00;0.00;0.62;7.40;6.70;;;25.30;30.70;;;;;;2249323;61;20400;-63
2021/09/23 06:09:58;0.00;0.00;0.62;0.00;0.00;0.62;8.80;7.20;;;25.30;30.70;;;;;;2249477;61;20364;-62
2021/09/23 06:12:42;0.00;0.00;0.62;0.00;0.00;0.62;7.00;5.83;;;25.20;30.80;;;;;;2249872;61;20412;-60
2021/09/23 06:15:27;0.00;0.00;0.62;0.00;0.00;0.62;7.67;5.07;;;25.20;30.80;;;;;;2249390;61;20395;-60
2021/09/23 06:18:11;0.00;0.00;0.62;0.00;0.00;0.62;7.10;6.37;;;25.20;30.80;;;;;;2249487;61;20400;-63
2021/09/23 06:20:57;0.00;0.00;0.62;0.00;0.00;0.62;7.93;6.00;;;25.20;30.80;;;;;;2249439;61;20808;-62
2021/09/23 06:23:42;0.00;0.00;0.62;0.00;0.00;0.62;8.30;6.60;;;25.20;30.80;;;;;;2249811;61;20368;-63
2021/09/23 06:26:26;0.00;0.00;0.62;0.00;0.00;0.62;9.83;8.83;;;25.20;30.80;;;;;;2249496;61;20380;-62
2021/09/23 06:29:11;0.00;0.00;0.62;0.00;0.00;0.62;9.10;7.67;;;25.20;30.80;;;;;;2249605;61;20359;-61
2021/09/23 06:31:55;0.00;0.00;0.62;0.00;0.00;0.62;11.23;8.03;;;25.20;30.80;;;;;;2250390;61;20404;-61
2021/09/23 06:34:41;0.00;0.00;0.62;0.00;0.00;0.62;7.30;5.77;;;25.20;30.80;;;;;;2249996;61;20444;-60
2021/09/23 06:37:27;0.00;0.00;0.62;0.00;0.00;0.62;9.93;7.80;;;25.10;30.80;;;;;;2249748;61;20345;-62
2021/09/23 06:40:13;0.00;0.00;0.62;0.00;0.00;0.62;8.87;6.70;;;25.10;30.80;;;;;;2250120;61;20360;-62
2021/09/23 06:42:57;0.00;0.00;0.62;0.00;0.00;0.62;9.00;8.07;;;25.10;30.80;;;;;;2250104;61;20388;-63
2021/09/23 06:45:42;0.00;0.00;0.62;0.00;0.00;0.62;9.40;6.40;;;25.10;30.90;;;;;;2250404;61;20380;-62
2021/09/23 06:48:27;0.00;0.00;0.62;0.00;0.00;0.62;7.07;6.37;;;25.00;30.80;;;;;;2250042;61;20364;-61
2021/09/23 06:51:11;0.00;0.00;0.62;0.00;0.00;0.62;6.33;5.70;;;25.10;30.90;;;;;;2250033;61;20360;-63
2021/09/23 06:53:57;0.00;0.00;0.62;0.00;0.00;0.62;7.40;6.40;;;25.00;30.80;;;;;;2250285;61;20393;-61
2021/09/23 06:56:42;0.00;0.00;0.62;0.00;0.00;0.62;12.00;10.70;;;25.00;30.80;;;;;;2250399;61;20388;-62
2021/09/23 06:59:27;0.00;0.00;0.62;0.00;0.00;0.62;16.53;12.40;;;25.00;30.40;;;;;;2250096;61;20392;-63
2021/09/23 07:02:13;0.00;0.00;0.62;0.00;0.00;0.62;15.33;13.33;;;25.00;30.00;;;;;;2249668;61;20605;-63
2021/09/23 07:05:12;0.00;0.00;0.62;0.00;0.00;0.62;13.87;12.37;;;24.90;30.00;;;;;;2249890;61;20385;-60
2021/09/23 07:08:03;0.00;0.00;0.62;0.00;0.00;0.62;14.67;11.23;;;24.80;29.90;;;;;;2250391;61;20412;-61
2021/09/23 07:10:52;0.00;0.00;0.62;0.00;0.00;0.62;13.70;10.50;;;24.80;29.90;;;;;;2250090;61;20573;-62
2021/09/23 07:13:36;0.00;0.00;0.62;0.00;0.00;0.62;11.80;8.90;;;24.70;30.00;;;;;;2249625;61;20600;-59
2021/09/23 07:16:21;0.00;0.00;0.62;0.00;0.00;0.62;10.27;7.90;;;24.60;30.20;;;;;;2250006;61;20431;-62
2021/09/23 07:19:05;0.00;0.00;0.62;0.00;0.00;0.62;7.47;6.40;;;24.60;30.40;;;;;;2249911;61;20389;-61
2021/09/23 07:21:50;0.00;0.00;0.62;0.00;0.00;0.62;12.00;9.00;;;24.60;30.60;;;;;;2250017;61;20820;-62
2021/09/23 07:24:35;0.00;0.00;0.62;0.00;0.00;0.62;9.80;8.23;;;24.50;30.60;;;;;;2250117;61;20450;-62
2021/09/23 07:27:21;0.00;0.00;0.62;0.00;0.00;0.62;8.90;6.80;;;24.50;30.80;;;;;;2249811;61;20353;-64
2021/09/23 07:30:07;0.00;0.00;0.62;0.00;0.00;0.62;6.93;5.83;;;24.50;30.80;;;;;;2249827;61;20380;-60
2021/09/23 07:32:51;0.00;0.00;0.62;0.00;0.00;0.62;12.07;7.13;;;24.50;30.90;;;;;;2249584;61;20437;-62
2021/09/23 07:35:36;0.00;0.00;0.62;0.00;0.00;0.62;8.73;6.30;;;24.50;31.00;;;;;;2249537;61;20468;-62
2021/09/23 07:38:21;0.00;0.00;0.62;0.00;0.00;0.62;8.87;6.60;;;24.50;31.00;;;;;;2249315;61;20360;-62
2021/09/23 07:41:07;0.00;0.00;0.62;0.00;0.00;0.62;6.20;5.60;;;24.50;31.10;;;;;;2249862;61;20420;-63
2021/09/23 07:43:54;0.00;0.00;0.62;0.00;0.00;0.62;8.27;5.50;;;24.50;31.10;;;;;;2248991;61;20356;-63
2021/09/23 07:46:38;0.00;0.00;0.62;0.00;0.00;0.62;5.57;5.00;;;24.50;31.20;;;;;;2249754;61;20497;-62
2021/09/23 07:49:23;0.00;0.00;0.62;0.00;0.00;0.62;8.00;5.90;;;24.50;31.20;;;;;;2249423;61;20348;-63
2021/09/23 07:52:08;0.00;0.00;0.62;0.00;0.00;0.62;7.20;6.50;;;24.60;31.30;;;;;;2249829;61;20365;-63
2021/09/23 07:54:55;0.00;0.00;0.62;0.00;0.00;0.62;8.70;6.33;;;24.60;31.30;;;;;;2250027;61;20442;-62
2021/09/23 07:57:40;0.00;0.00;0.62;0.00;0.00;0.62;7.00;5.60;;;24.60;31.30;;;;;;2249508;61;20349;-63
2021/09/23 08:00:26;0.00;0.00;0.62;0.00;0.00;0.62;7.60;6.17;;;24.60;31.30;;;;;;2249823;61;20360;-64
2021/09/23 08:03:11;0.00;0.00;0.62;0.00;0.00;0.62;9.20;6.60;;;24.60;31.30;;;;;;2249810;61;20365;-63
2021/09/23 08:05:56;0.00;0.00;0.62;0.00;0.00;0.62;8.20;6.10;;;24.60;31.20;;;;;;2249455;61;20413;-64
2021/09/23 08:08:41;0.00;0.00;0.62;0.00;0.00;0.62;9.43;7.00;;;24.60;31.90;;;;;;2249067;61;20368;-63
2021/09/23 08:11:26;0.00;0.00;0.62;0.00;0.00;0.62;6.77;5.53;;;24.60;31.30;;;;;;2249714;61;20432;-61
2021/09/23 08:14:17;0.00;0.00;0.62;0.00;0.00;0.62;10.90;8.67;;;24.60;31.30;;;;;;2249725;61;20361;-62
2021/09/23 08:17:05;0.00;0.00;0.62;0.00;0.00;0.62;9.07;6.70;;;24.60;31.10;;;;;;2249082;61;20664;-61
2021/09/23 08:20:20;0.00;0.00;0.62;0.00;0.00;0.62;7.17;5.30;;;24.60;31.10;;;;;;2249064;61;20411;-63
2021/09/23 08:23:06;0.00;0.00;0.62;0.00;0.00;0.62;6.43;5.67;;;24.60;31.20;;;;;;2249529;61;20381;-61
2021/09/23 08:25:52;0.00;0.00;0.62;0.00;0.00;0.62;7.03;5.67;;;24.60;31.20;;;;;;2249757;61;20376;-62
2021/09/23 08:28:37;0.00;0.00;0.62;0.00;0.00;0.62;6.80;6.10;;;24.70;31.30;;;;;;2249460;61;20365;-64
2021/09/23 08:31:23;0.00;0.00;0.62;0.00;0.00;0.62;6.97;5.53;;;24.60;31.20;;;;;;2249559;61;20396;-61
2021/09/23 08:34:16;0.00;0.00;0.62;0.00;0.00;0.62;7.60;6.40;;;24.70;31.30;;;;;;2249397;61;20847;-63
2021/09/23 08:37:03;0.00;0.00;0.62;0.00;0.00;0.62;7.87;5.27;;;24.70;31.30;;;;;;2249758;61;20388;-61
2021/09/23 08:39:48;0.00;0.00;0.62;0.00;0.00;0.62;6.77;5.47;;;24.70;31.30;;;;;;2249467;61;20768;-64
2021/09/23 08:42:32;0.00;0.00;0.62;0.00;0.00;0.62;6.30;5.50;;;24.70;31.30;;;;;;2249351;61;20400;-65
2021/09/23 08:45:17;0.00;0.00;0.62;0.00;0.00;0.62;7.00;6.00;;;24.70;31.30;;;;;;2249920;61;20419;-57
2021/09/23 08:48:02;0.00;0.00;0.62;0.00;0.00;0.62;10.87;6.10;;;24.70;31.30;;;;;;2249668;61;20377;-65
2021/09/23 08:50:48;0.00;0.00;0.62;0.00;0.00;0.62;7.23;5.33;;;24.80;31.30;;;;;;2249437;61;20356;-64
2021/09/23 08:53:33;0.00;0.00;0.62;0.00;0.00;0.62;8.47;6.87;;;24.80;31.20;;;;;;2249360;61;20376;-63
2021/09/23 08:56:21;0.00;0.00;0.62;0.00;0.00;0.62;9.90;6.10;;;24.80;31.10;;;;;;2249410;61;20397;-62
2021/09/23 08:59:07;0.00;0.00;0.62;0.00;0.00;0.62;7.40;5.53;;;24.90;31.10;;;;;;2249928;61;20381;-61
2021/09/23 09:01:51;0.00;0.00;0.62;0.00;0.00;0.62;6.53;4.90;;;24.90;31.10;;;;;;2249266;61;20388;-62
2021/09/23 09:04:59;0.00;0.00;0.62;0.00;0.00;0.62;5.07;4.57;;;24.90;31.10;;;;;;2249542;61;20404;-61
2021/09/23 09:08:04;0.00;0.00;0.62;0.00;0.00;0.62;7.40;6.13;;;24.90;31.10;;;;;;2249690;61;20353;-60
2021/09/23 09:11:00;0.00;0.00;0.62;0.00;0.00;0.62;8.33;5.37;;;25.00;31.00;;;;;;2249501;61;20388;-61
2021/09/23 09:13:48;0.00;0.00;0.62;0.00;0.00;0.62;4.90;4.40;;;25.00;31.10;;;;;;2249499;61;20361;-61
2021/09/23 09:16:34;0.00;0.00;0.62;0.00;0.00;0.62;4.67;3.77;;;25.00;31.10;;;;;;2249629;61;20637;-61
2021/09/23 09:19:18;0.00;0.00;0.62;0.00;0.00;0.62;3.90;3.27;;;25.00;31.10;;;;;;2249184;61;20580;-62
2021/09/23 09:22:09;0.00;0.00;0.62;0.00;0.00;0.62;6.10;2.90;;;25.10;31.30;;;;;;2250016;61;20443;-61
2021/09/23 09:24:59;0.00;0.00;0.62;0.00;0.00;0.62;4.33;3.00;;;25.10;31.40;;;;;;2249556;61;20388;-62
2021/09/23 09:27:49;0.00;0.00;0.62;0.00;0.00;0.62;4.03;3.33;;;25.20;31.50;;;;;;2249341;61;20732;-62
2021/09/23 09:30:36;0.00;0.00;0.62;0.00;0.00;0.62;5.47;3.37;;;25.20;31.50;;;;;;2249335;61;20349;-62
2021/09/23 09:33:33;0.00;0.00;0.62;0.00;0.00;0.62;5.40;3.53;;;25.20;31.50;;;;;;2248803;61;20360;-60
2021/09/23 09:36:31;0.00;0.00;0.62;0.00;0.00;0.62;3.07;2.67;;;25.30;31.60;;;;;;2249528;61;20404;-60
2021/09/23 09:39:18;0.00;0.00;0.62;0.00;0.00;0.62;2.90;2.60;;;25.40;31.60;;;;;;2249409;61;20404;-60
2021/09/23 09:42:05;0.00;0.00;0.62;0.00;0.00;0.62;4.70;3.20;;;25.40;31.60;;;;;;2249197;61;20424;-61
2021/09/23 09:44:53;0.00;0.00;0.62;0.00;0.00;0.62;2.70;2.37;;;25.50;31.60;;;;;;2249145;61;20348;-62
2021/09/23 09:47:38;0.00;0.00;0.62;0.00;0.00;0.62;3.73;2.70;;;25.50;31.70;;;;;;2249556;61;20357;-60
2021/09/23 09:50:25;0.00;0.00;0.62;0.00;0.00;0.62;3.10;2.80;;;25.50;31.60;;;;;;2249685;61;20570;-61
2021/09/23 09:53:13;0.00;0.00;0.62;0.00;0.00;0.62;2.83;2.50;;;25.50;31.50;;;;;;2249166;61;20373;-62
2021/09/23 09:55:59;0.00;0.00;0.62;0.00;0.00;0.62;4.00;3.03;;;25.60;31.60;;;;;;2249031;61;20384;-62
2021/09/23 09:59:05;0.00;0.00;0.62;0.00;0.00;0.62;3.10;2.60;;;25.60;31.60;;;;;;2249521;61;20764;-62
2021/09/23 10:01:52;0.00;0.00;0.62;0.00;0.00;0.62;2.57;2.30;;;25.70;31.60;;;;;;2249494;61;20381;-61
2021/09/23 10:04:38;0.00;0.00;0.62;0.00;0.00;0.62;6.13;3.00;;;25.70;31.50;;;;;;2249327;61;20404;-60
2021/09/23 10:07:24;0.00;0.00;0.62;0.00;0.00;0.62;2.80;2.40;;;25.70;31.50;;;;;;2249899;61;20364;-62
2021/09/23 10:10:10;0.00;0.00;0.62;0.00;0.00;0.62;2.67;2.47;;;25.70;31.50;;;;;;2250078;61;20566;-61
2021/09/23 10:12:58;0.00;0.00;0.62;0.00;0.00;0.62;3.53;2.93;;;25.80;31.50;;;;;;2250097;61;20364;-61
2021/09/23 10:15:44;0.00;0.00;0.62;0.00;0.00;0.62;3.90;2.87;;;25.80;31.50;;;;;;2249847;61;20800;-61
2021/09/23 10:18:29;0.00;0.00;0.62;0.00;0.00;0.62;3.13;2.80;;;25.80;31.50;;;;;;2249665;61;20372;-61
2021/09/23 10:21:16;0.00;0.00;0.62;0.00;0.00;0.62;2.50;2.30;;;25.80;31.50;;;;;;2250173;61;20384;-62
2021/09/23 10:24:04;0.00;0.00;0.62;0.00;0.00;0.62;3.57;2.83;;;25.90;32.20;;;;;;2250050;61;20400;-63
2021/09/23 10:26:50;0.00;0.00;0.62;0.00;0.00;0.62;2.53;2.33;;;25.90;31.50;;;;;;2249686;61;20455;-62
2021/09/23 10:29:37;0.00;0.00;0.62;0.00;0.00;0.62;3.13;2.63;;;25.90;31.50;;;;;;2249779;61;20369;-61
2021/09/23 10:32:26;0.00;0.00;0.62;0.00;0.00;0.62;2.20;1.80;;;26.00;31.50;;;;;;2249794;61;20392;-62
2021/09/23 10:35:12;0.00;0.00;0.62;0.00;0.00;0.62;2.80;2.50;;;26.00;31.50;;;;;;2250079;61;20585;-62
2021/09/23 10:38:00;0.00;0.00;0.62;0.00;0.00;0.62;2.37;2.10;;;26.00;31.50;;;;;;2249794;61;20372;-62
2021/09/23 10:40:45;0.00;0.00;0.62;0.00;0.00;0.62;2.27;1.90;;;26.10;31.60;;;;;;2249697;61;20397;-62
2021/09/23 10:43:31;0.00;0.00;0.62;0.00;0.00;0.62;3.17;2.30;;;26.10;31.60;;;;;;2250005;61;20433;-60
2021/09/23 10:46:21;0.00;0.00;0.62;0.00;0.00;0.62;3.37;2.47;;;26.10;31.50;;;;;;2247300;61;20646;-61
2021/09/23 10:49:09;0.00;0.00;0.62;0.00;0.00;0.62;2.10;1.73;;;26.10;31.50;;;;;;2249690;61;20629;-60
2021/09/23 10:51:58;0.00;0.00;0.62;0.00;0.00;0.62;3.37;2.37;;;26.10;31.50;;;;;;2249714;61;20372;-62
2021/09/23 10:54:43;0.00;0.00;0.62;0.00;0.00;0.62;2.10;1.90;;;26.20;31.50;;;;;;2249667;61;20400;-61
2021/09/23 10:57:31;0.00;0.00;0.62;0.00;0.00;0.62;2.87;2.37;;;26.20;31.50;;;;;;2250085;61;20724;-61